Dunkins Mill, South Carolina
Current Conditions -  °F | °C
As of 3:58 PM on Friday 31 Oct 2014 (Local Time) from KSSC Reporting Station
Broken Clouds Broken Clouds  
Wind Chill: 20°   Ceiling: 6000
Heat Index: 20°   Visibility: 10mi
Dew Point:   Wind: 8mph
Humidity: 41%   Direction: 350°N
Pressure: 29.78"   Gusts: NA
Location:  34.1106°N, 80.4967°W
Report Text: KSSC 311958Z AUTO 35007KT 10SM BKN060 BKN080 20/06 A2978 RMK AO2 CIG 055 RWY22 SLP085 T01990063 $
Loading
Personal Weather Stations






























Interactive Weather Map
Tropical Storm Tracking
New forecast layout! Learn more

10-Day Weather Forecast

Advertisements
Track Severe Weather on mobile